sensor_id;sensor_type;location;lat;lon;timestamp;P1;durP1;ratioP1;P2;durP2;ratioP2
47381;SDS011;33128;51.580;5.170;2022-11-04T06:48:35;35.67;;;33.63;;
47381;SDS011;33128;51.580;5.170;2022-11-04T06:51:00;52.92;;;48.80;;
47381;SDS011;33128;51.580;5.170;2022-11-04T06:53:26;55.00;;;51.55;;
47381;SDS011;33128;51.580;5.170;2022-11-04T06:55:53;53.80;;;51.00;;
47381;SDS011;33128;51.580;5.170;2022-11-04T06:58:28;44.90;;;42.50;;
47381;SDS011;33128;51.580;5.170;2022-11-04T07:00:53;45.10;;;42.80;;
47381;SDS011;33128;51.580;5.170;2022-11-04T07:03:19;433.92;;;392.00;;
47381;SDS011;33128;51.580;5.170;2022-11-04T07:05:45;414.95;;;375.40;;
47381;SDS011;33128;51.580;5.170;2022-11-04T07:08:10;439.73;;;398.90;;
47381;SDS011;33128;51.580;5.170;2022-11-04T07:10:36;426.23;;;386.50;;
47381;SDS011;33128;51.580;5.170;2022-11-04T07:13:02;424.45;;;384.25;;
47381;SDS011;33128;51.580;5.170;2022-11-04T07:15:27;416.35;;;377.45;;
47381;SDS011;33128;51.580;5.170;2022-11-04T07:17:53;414.10;;;375.23;;
47381;SDS011;33128;51.580;5.170;2022-11-04T07:20:18;404.17;;;365.77;;
47381;SDS011;33128;51.580;5.170;2022-11-04T07:22:47;399.85;;;361.33;;
47381;SDS011;33128;51.580;5.170;2022-11-04T07:25:12;408.10;;;369.02;;
47381;SDS011;33128;51.580;5.170;2022-11-04T07:27:38;387.90;;;349.50;;
47381;SDS011;33128;51.580;5.170;2022-11-04T07:30:04;395.48;;;356.08;;
47381;SDS011;33128;51.580;5.170;2022-11-04T07:32:31;399.95;;;360.25;;
47381;SDS011;33128;51.580;5.170;2022-11-04T07:34:56;391.05;;;351.70;;
47381;SDS011;33128;51.580;5.170;2022-11-04T07:37:22;397.10;;;357.83;;
47381;SDS011;33128;51.580;5.170;2022-11-04T07:39:48;396.75;;;357.63;;
47381;SDS011;33128;51.580;5.170;2022-11-04T07:42:13;400.40;;;360.80;;
47381;SDS011;33128;51.580;5.170;2022-11-04T07:44:39;403.23;;;363.38;;
47381;SDS011;33128;51.580;5.170;2022-11-04T07:47:04;403.33;;;363.73;;
47381;SDS011;33128;51.580;5.170;2022-11-04T07:49:30;407.25;;;369.23;;
47381;SDS011;33128;51.580;5.170;2022-11-04T07:51:55;397.10;;;358.05;;
47381;SDS011;33128;51.580;5.170;2022-11-04T07:54:21;393.73;;;355.27;;
47381;SDS011;33128;51.580;5.170;2022-11-04T07:56:46;417.10;;;377.48;;
47381;SDS011;33128;51.580;5.170;2022-11-04T07:59:12;405.55;;;366.27;;
47381;SDS011;33128;51.580;5.170;2022-11-04T08:01:39;422.85;;;383.75;;
47381;SDS011;33128;51.580;5.170;2022-11-04T08:04:05;398.83;;;359.70;;
47381;SDS011;33128;51.580;5.170;2022-11-04T08:06:31;391.90;;;353.48;;
47381;SDS011;33128;51.580;5.170;2022-11-04T08:09:00;394.10;;;355.25;;
47381;SDS011;33128;51.580;5.170;2022-11-04T08:11:26;394.92;;;355.95;;
47381;SDS011;33128;51.580;5.170;2022-11-04T08:13:52;396.48;;;357.20;;
47381;SDS011;33128;51.580;5.170;2022-11-04T08:16:19;388.02;;;349.70;;
47381;SDS011;33128;51.580;5.170;2022-11-04T08:18:46;407.52;;;367.25;;
47381;SDS011;33128;51.580;5.170;2022-11-04T08:21:13;420.48;;;380.33;;
47381;SDS011;33128;51.580;5.170;2022-11-04T08:23:42;393.17;;;353.83;;
47381;SDS011;33128;51.580;5.170;2022-11-04T08:26:10;405.65;;;365.73;;
47381;SDS011;33128;51.580;5.170;2022-11-04T08:28:38;406.20;;;366.50;;
47381;SDS011;33128;51.580;5.170;2022-11-04T08:31:05;390.58;;;351.80;;
47381;SDS011;33128;51.580;5.170;2022-11-04T08:33:36;392.25;;;353.80;;
47381;SDS011;33128;51.580;5.170;2022-11-04T08:36:13;397.40;;;359.08;;
47381;SDS011;33128;51.580;5.170;2022-11-04T08:38:47;395.90;;;357.50;;
47381;SDS011;33128;51.580;5.170;2022-11-04T08:41:13;390.55;;;352.80;;
47381;SDS011;33128;51.580;5.170;2022-11-04T08:43:40;400.63;;;362.02;;
47381;SDS011;33128;51.580;5.170;2022-11-04T08:46:07;403.88;;;365.67;;
47381;SDS011;33128;51.580;5.170;2022-11-04T08:48:34;394.90;;;355.77;;
47381;SDS011;33128;51.580;5.170;2022-11-04T08:51:01;415.58;;;376.35;;
47381;SDS011;33128;51.580;5.170;2022-11-04T08:53:28;390.67;;;352.75;;
47381;SDS011;33128;51.580;5.170;2022-11-04T08:55:54;384.73;;;347.20;;
47381;SDS011;33128;51.580;5.170;2022-11-04T08:58:19;383.38;;;346.08;;
47381;SDS011;33128;51.580;5.170;2022-11-04T09:00:45;394.02;;;355.48;;
47381;SDS011;33128;51.580;5.170;2022-11-04T09:03:11;407.75;;;369.77;;
47381;SDS011;33128;51.580;5.170;2022-11-04T09:05:37;413.85;;;375.65;;
47381;SDS011;33128;51.580;5.170;2022-11-04T09:08:09;403.90;;;365.83;;
47381;SDS011;33128;51.580;5.170;2022-11-04T09:10:35;407.70;;;369.50;;
47381;SDS011;33128;51.580;5.170;2022-11-04T09:13:06;400.48;;;360.35;;
47381;SDS011;33128;51.580;5.170;2022-11-04T09:15:34;397.02;;;359.10;;
47381;SDS011;33128;51.580;5.170;2022-11-04T09:18:00;409.05;;;370.50;;
47381;SDS011;33128;51.580;5.170;2022-11-04T09:20:26;404.60;;;365.35;;
47381;SDS011;33128;51.580;5.170;2022-11-04T09:22:52;402.40;;;363.55;;
47381;SDS011;33128;51.580;5.170;2022-11-04T09:25:19;397.42;;;359.30;;
47381;SDS011;33128;51.580;5.170;2022-11-04T09:27:45;395.35;;;357.13;;
47381;SDS011;33128;51.580;5.170;2022-11-04T09:30:10;393.58;;;355.05;;
47381;SDS011;33128;51.580;5.170;2022-11-04T09:32:36;389.33;;;350.65;;
47381;SDS011;33128;51.580;5.170;2022-11-04T09:35:02;395.67;;;357.05;;
47381;SDS011;33128;51.580;5.170;2022-11-04T09:37:28;410.35;;;371.52;;
47381;SDS011;33128;51.580;5.170;2022-11-04T09:39:56;420.17;;;381.77;;
47381;SDS011;33128;51.580;5.170;2022-11-04T09:42:41;397.48;;;359.65;;
47381;SDS011;33128;51.580;5.170;2022-11-04T09:47:35;412.83;;;374.65;;
47381;SDS011;33128;51.580;5.170;2022-11-04T09:50:05;413.73;;;375.98;;
47381;SDS011;33128;51.580;5.170;2022-11-04T09:52:37;401.25;;;363.27;;
47381;SDS011;33128;51.580;5.170;2022-11-04T09:55:15;353.50;;;323.02;;
47381;SDS011;33128;51.580;5.170;2022-11-04T09:57:53;414.02;;;376.10;;
47381;SDS011;33128;51.580;5.170;2022-11-04T10:00:22;410.88;;;373.08;;
47381;SDS011;33128;51.580;5.170;2022-11-04T10:08:07;411.08;;;372.08;;
47381;SDS011;33128;51.580;5.170;2022-11-04T10:11:02;409.60;;;371.48;;
47381;SDS011;33128;51.580;5.170;2022-11-04T10:13:40;424.98;;;385.77;;
47381;SDS011;33128;51.580;5.170;2022-11-04T10:19:18;421.08;;;381.98;;
47381;SDS011;33128;51.580;5.170;2022-11-04T10:24:55;414.67;;;375.20;;
47381;SDS011;33128;51.580;5.170;2022-11-04T10:27:37;425.98;;;386.58;;
47381;SDS011;33128;51.580;5.170;2022-11-04T10:30:22;423.48;;;384.67;;
47381;SDS011;33128;51.580;5.170;2022-11-04T10:38:23;54.95;;;51.00;;
47381;SDS011;33128;51.580;5.170;2022-11-04T10:40:53;57.90;;;54.05;;
47381;SDS011;33128;51.580;5.170;2022-11-04T10:43:26;56.65;;;53.08;;
47381;SDS011;33128;51.580;5.170;2022-11-04T10:48:47;56.00;;;52.80;;
47381;SDS011;33128;51.580;5.170;2022-11-04T10:51:18;62.20;;;58.33;;
47381;SDS011;33128;51.580;5.170;2022-11-04T10:53:46;54.70;;;51.20;;
47381;SDS011;33128;51.580;5.170;2022-11-04T10:56:57;57.13;;;53.67;;
47381;SDS011;33128;51.580;5.170;2022-11-04T10:59:17;54.25;;;50.85;;
47381;SDS011;33128;51.580;5.170;2022-11-04T11:01:59;59.08;;;55.30;;
47381;SDS011;33128;51.580;5.170;2022-11-04T11:04:30;58.13;;;54.20;;
47381;SDS011;33128;51.580;5.170;2022-11-04T11:06:58;58.25;;;54.67;;
47381;SDS011;33128;51.580;5.170;2022-11-04T11:09:35;54.03;;;50.35;;
47381;SDS011;33128;51.580;5.170;2022-11-04T11:14:40;56.95;;;53.55;;
47381;SDS011;33128;51.580;5.170;2022-11-04T11:17:16;57.03;;;53.03;;
47381;SDS011;33128;51.580;5.170;2022-11-04T11:19:45;57.72;;;53.95;;
47381;SDS011;33128;51.580;5.170;2022-11-04T11:22:36;58.28;;;54.67;;
47381;SDS011;33128;51.580;5.170;2022-11-04T11:25:20;62.72;;;58.05;;
47381;SDS011;33128;51.580;5.170;2022-11-04T11:33:27;66.93;;;62.28;;
47381;SDS011;33128;51.580;5.170;2022-11-04T11:39:00;65.60;;;60.83;;
47381;SDS011;33128;51.580;5.170;2022-11-04T11:41:29;65.53;;;61.42;;
47381;SDS011;33128;51.580;5.170;2022-11-04T11:44:16;69.38;;;64.47;;
47381;SDS011;33128;51.580;5.170;2022-11-04T11:46:53;64.97;;;60.60;;
47381;SDS011;33128;51.580;5.170;2022-11-04T11:49:22;65.30;;;60.67;;
47381;SDS011;33128;51.580;5.170;2022-11-04T11:55:00;65.05;;;60.47;;
47381;SDS011;33128;51.580;5.170;2022-11-04T12:00:36;65.63;;;61.08;;
47381;SDS011;33128;51.580;5.170;2022-11-04T12:03:14;66.53;;;62.13;;
47381;SDS011;33128;51.580;5.170;2022-11-04T12:09:08;65.15;;;60.60;;
47381;SDS011;33128;51.580;5.170;2022-11-04T12:14:30;58.35;;;54.35;;
47381;SDS011;33128;51.580;5.170;2022-11-04T12:17:03;61.47;;;57.80;;
47381;SDS011;33128;51.580;5.170;2022-11-04T12:19:36;62.92;;;58.85;;
47381;SDS011;33128;51.580;5.170;2022-11-04T12:24:58;59.17;;;55.42;;
47381;SDS011;33128;51.580;5.170;2022-11-04T12:30:22;65.10;;;58.80;;
47381;SDS011;33128;51.580;5.170;2022-11-04T12:35:37;65.35;;;60.92;;
47381;SDS011;33128;51.580;5.170;2022-11-04T12:41:04;65.25;;;60.78;;
47381;SDS011;33128;51.580;5.170;2022-11-04T12:49:09;63.65;;;59.47;;
47381;SDS011;33128;51.580;5.170;2022-11-04T12:52:00;66.38;;;61.70;;
47381;SDS011;33128;51.580;5.170;2022-11-04T12:57:22;77.22;;;61.10;;
47381;SDS011;33128;51.580;5.170;2022-11-04T13:00:04;68.40;;;63.72;;
47381;SDS011;33128;51.580;5.170;2022-11-04T13:07:57;38.90;;;36.30;;
47381;SDS011;33128;51.580;5.170;2022-11-04T13:10:27;36.88;;;34.67;;
47381;SDS011;33128;51.580;5.170;2022-11-04T13:13:06;37.50;;;35.55;;
47381;SDS011;33128;51.580;5.170;2022-11-04T13:15:37;38.78;;;35.72;;
47381;SDS011;33128;51.580;5.170;2022-11-04T13:18:08;37.10;;;34.88;;
47381;SDS011;33128;51.580;5.170;2022-11-04T13:23:21;37.80;;;35.73;;
47381;SDS011;33128;51.580;5.170;2022-11-04T13:25:50;39.40;;;37.20;;
47381;SDS011;33128;51.580;5.170;2022-11-04T13:28:18;35.95;;;34.03;;
47381;SDS011;33128;51.580;5.170;2022-11-04T13:39:07;35.22;;;33.42;;
47381;SDS011;33128;51.580;5.170;2022-11-04T13:41:55;33.53;;;31.73;;
47381;SDS011;33128;51.580;5.170;2022-11-04T13:44:44;37.50;;;34.97;;
47381;SDS011;33128;51.580;5.170;2022-11-04T13:47:26;36.95;;;34.78;;
47381;SDS011;33128;51.580;5.170;2022-11-04T13:49:58;37.30;;;35.28;;
47381;SDS011;33128;51.580;5.170;2022-11-04T13:52:25;39.63;;;37.28;;
47381;SDS011;33128;51.580;5.170;2022-11-04T13:54:58;36.30;;;34.50;;
47381;SDS011;33128;51.580;5.170;2022-11-04T13:57:47;36.80;;;34.55;;
47381;SDS011;33128;51.580;5.170;2022-11-04T14:02:58;37.97;;;35.97;;
47381;SDS011;33128;51.580;5.170;2022-11-04T14:08:28;37.35;;;35.25;;
47381;SDS011;33128;51.580;5.170;2022-11-04T14:10:58;35.78;;;33.78;;
47381;SDS011;33128;51.580;5.170;2022-11-04T14:16:09;36.10;;;34.05;;
47381;SDS011;33128;51.580;5.170;2022-11-04T14:21:09;38.97;;;36.67;;
47381;SDS011;33128;51.580;5.170;2022-11-04T14:23:44;37.58;;;35.58;;
47381;SDS011;33128;51.580;5.170;2022-11-04T14:26:13;34.97;;;33.08;;
47381;SDS011;33128;51.580;5.170;2022-11-04T14:28:48;37.35;;;35.25;;
47381;SDS011;33128;51.580;5.170;2022-11-04T14:31:36;37.70;;;35.47;;
47381;SDS011;33128;51.580;5.170;2022-11-04T14:34:06;41.00;;;38.80;;
47381;SDS011;33128;51.580;5.170;2022-11-04T14:36:47;43.35;;;41.05;;
47381;SDS011;33128;51.580;5.170;2022-11-04T14:39:35;41.38;;;39.28;;
47381;SDS011;33128;51.580;5.170;2022-11-04T14:42:04;43.20;;;40.38;;
47381;SDS011;33128;51.580;5.170;2022-11-04T14:44:34;42.45;;;39.97;;
47381;SDS011;33128;51.580;5.170;2022-11-04T14:49:52;43.90;;;41.20;;
47381;SDS011;33128;51.580;5.170;2022-11-04T14:52:36;43.22;;;41.00;;
47381;SDS011;33128;51.580;5.170;2022-11-04T14:55:07;43.25;;;41.03;;
47381;SDS011;33128;51.580;5.170;2022-11-04T14:57:58;42.38;;;40.08;;
47381;SDS011;33128;51.580;5.170;2022-11-04T15:05:45;44.53;;;42.08;;
47381;SDS011;33128;51.580;5.170;2022-11-04T15:08:25;41.50;;;39.28;;
47381;SDS011;33128;51.580;5.170;2022-11-04T15:14:15;39.92;;;37.92;;
47381;SDS011;33128;51.580;5.170;2022-11-04T15:16:46;39.63;;;37.63;;
47381;SDS011;33128;51.580;5.170;2022-11-04T15:19:22;39.72;;;37.72;;
47381;SDS011;33128;51.580;5.170;2022-11-04T15:21:57;40.25;;;37.95;;
47381;SDS011;33128;51.580;5.170;2022-11-04T15:24:25;40.20;;;38.10;;
47381;SDS011;33128;51.580;5.170;2022-11-04T15:26:51;38.25;;;36.25;;
47381;SDS011;33128;51.580;5.170;2022-11-04T15:29:19;38.80;;;36.80;;
47381;SDS011;33128;51.580;5.170;2022-11-04T15:31:54;39.88;;;37.67;;
47381;SDS011;33128;51.580;5.170;2022-11-04T15:34:26;41.97;;;39.78;;
47381;SDS011;33128;51.580;5.170;2022-11-04T15:36:53;40.47;;;38.22;;
47381;SDS011;33128;51.580;5.170;2022-11-04T15:39:25;40.45;;;38.25;;
47381;SDS011;33128;51.580;5.170;2022-11-04T15:41:56;41.70;;;39.45;;
47381;SDS011;33128;51.580;5.170;2022-11-04T15:44:46;43.13;;;40.58;;
47381;SDS011;33128;51.580;5.170;2022-11-04T15:49:44;41.13;;;38.83;;
47381;SDS011;33128;51.580;5.170;2022-11-04T15:54:50;40.95;;;38.75;;
47381;SDS011;33128;51.580;5.170;2022-11-04T15:57:23;40.38;;;38.17;;
47381;SDS011;33128;51.580;5.170;2022-11-04T16:02:55;41.67;;;39.47;;
47381;SDS011;33128;51.580;5.170;2022-11-04T16:07:51;41.55;;;39.25;;
47381;SDS011;33128;51.580;5.170;2022-11-04T16:12:58;42.22;;;40.03;;
47381;SDS011;33128;51.580;5.170;2022-11-04T16:16:26;37.90;;;36.00;;
47381;SDS011;33128;51.580;5.170;2022-11-04T16:21:20;40.92;;;38.67;;
47381;SDS011;33128;51.580;5.170;2022-11-04T16:23:58;41.78;;;39.58;;
47381;SDS011;33128;51.580;5.170;2022-11-04T16:26:30;40.40;;;38.40;;
47381;SDS011;33128;51.580;5.170;2022-11-04T16:29:04;39.53;;;37.35;;
47381;SDS011;33128;51.580;5.170;2022-11-04T16:31:33;37.85;;;35.85;;
47381;SDS011;33128;51.580;5.170;2022-11-04T16:34:00;37.70;;;35.70;;
47381;SDS011;33128;51.580;5.170;2022-11-04T16:36:26;37.92;;;35.83;;
47381;SDS011;33128;51.580;5.170;2022-11-04T16:38:59;38.42;;;36.42;;
47381;SDS011;33128;51.580;5.170;2022-11-04T16:41:32;36.90;;;34.80;;
47381;SDS011;33128;51.580;5.170;2022-11-04T16:44:05;37.58;;;35.58;;
47381;SDS011;33128;51.580;5.170;2022-11-04T16:46:42;37.15;;;35.08;;
47381;SDS011;33128;51.580;5.170;2022-11-04T16:49:09;40.50;;;38.40;;
47381;SDS011;33128;51.580;5.170;2022-11-04T16:51:39;36.80;;;34.80;;
47381;SDS011;33128;51.580;5.170;2022-11-04T16:54:05;35.50;;;33.60;;
47381;SDS011;33128;51.580;5.170;2022-11-04T16:56:30;35.53;;;33.53;;
47381;SDS011;33128;51.580;5.170;2022-11-04T16:58:58;36.42;;;34.33;;
47381;SDS011;33128;51.580;5.170;2022-11-04T17:01:23;36.40;;;34.17;;
47381;SDS011;33128;51.580;5.170;2022-11-04T17:03:49;38.10;;;36.00;;
47381;SDS011;33128;51.580;5.170;2022-11-04T17:06:15;38.42;;;36.33;;
47381;SDS011;33128;51.580;5.170;2022-11-04T17:08:44;37.30;;;35.30;;
47381;SDS011;33128;51.580;5.170;2022-11-04T17:11:10;36.75;;;34.45;;
47381;SDS011;33128;51.580;5.170;2022-11-04T17:13:36;37.92;;;35.92;;
47381;SDS011;33128;51.580;5.170;2022-11-04T17:16:02;36.53;;;34.53;;
47381;SDS011;33128;51.580;5.170;2022-11-04T17:18:29;38.08;;;36.00;;
47381;SDS011;33128;51.580;5.170;2022-11-04T17:20:59;38.40;;;36.20;;
47381;SDS011;33128;51.580;5.170;2022-11-04T17:23:29;35.40;;;33.40;;
47381;SDS011;33128;51.580;5.170;2022-11-04T17:25:54;35.80;;;33.88;;
47381;SDS011;33128;51.580;5.170;2022-11-04T17:28:20;35.53;;;33.63;;
47381;SDS011;33128;51.580;5.170;2022-11-04T17:30:49;37.47;;;35.10;;
47381;SDS011;33128;51.580;5.170;2022-11-04T17:33:17;36.90;;;34.90;;
47381;SDS011;33128;51.580;5.170;2022-11-04T17:35:44;37.50;;;35.50;;
47381;SDS011;33128;51.580;5.170;2022-11-04T17:38:13;36.70;;;34.60;;
47381;SDS011;33128;51.580;5.170;2022-11-04T17:40:40;33.72;;;31.83;;
47381;SDS011;33128;51.580;5.170;2022-11-04T17:43:25;33.63;;;31.67;;
47381;SDS011;33128;51.580;5.170;2022-11-04T17:46:10;34.75;;;32.85;;
47381;SDS011;33128;51.580;5.170;2022-11-04T17:48:54;36.93;;;34.87;;
47381;SDS011;33128;51.580;5.170;2022-11-04T17:51:20;36.08;;;33.90;;
47381;SDS011;33128;51.580;5.170;2022-11-04T17:53:46;36.45;;;34.47;;
47381;SDS011;33128;51.580;5.170;2022-11-04T17:56:16;36.45;;;34.45;;
47381;SDS011;33128;51.580;5.170;2022-11-04T17:58:42;34.03;;;32.13;;
47381;SDS011;33128;51.580;5.170;2022-11-04T18:01:12;36.13;;;34.13;;
47381;SDS011;33128;51.580;5.170;2022-11-04T18:03:39;35.08;;;32.83;;
47381;SDS011;33128;51.580;5.170;2022-11-04T18:06:06;35.45;;;33.45;;
47381;SDS011;33128;51.580;5.170;2022-11-04T18:08:33;33.85;;;31.83;;
47381;SDS011;33128;51.580;5.170;2022-11-04T18:11:06;32.05;;;30.25;;
47381;SDS011;33128;51.580;5.170;2022-11-04T18:13:33;34.28;;;32.45;;
47381;SDS011;33128;51.580;5.170;2022-11-04T18:16:07;35.03;;;32.97;;
47381;SDS011;33128;51.580;5.170;2022-11-04T18:18:34;35.40;;;33.42;;
47381;SDS011;33128;51.580;5.170;2022-11-04T18:21:03;32.42;;;30.52;;
47381;SDS011;33128;51.580;5.170;2022-11-04T18:23:30;34.40;;;32.58;;
47381;SDS011;33128;51.580;5.170;2022-11-04T18:25:55;32.67;;;30.88;;
47381;SDS011;33128;51.580;5.170;2022-11-04T18:28:21;34.70;;;32.80;;
47381;SDS011;33128;51.580;5.170;2022-11-04T18:30:47;35.65;;;33.67;;
47381;SDS011;33128;51.580;5.170;2022-11-04T18:33:13;36.47;;;34.58;;
47381;SDS011;33128;51.580;5.170;2022-11-04T18:35:38;34.67;;;32.78;;
47381;SDS011;33128;51.580;5.170;2022-11-04T18:38:04;35.60;;;33.60;;
47381;SDS011;33128;51.580;5.170;2022-11-04T18:40:29;35.67;;;33.88;;
47381;SDS011;33128;51.580;5.170;2022-11-04T18:42:55;36.75;;;34.55;;
47381;SDS011;33128;51.580;5.170;2022-11-04T18:45:21;34.42;;;32.53;;
47381;SDS011;33128;51.580;5.170;2022-11-04T18:47:47;35.15;;;33.15;;
47381;SDS011;33128;51.580;5.170;2022-11-04T18:50:13;33.88;;;31.98;;
47381;SDS011;33128;51.580;5.170;2022-11-04T18:52:39;34.55;;;32.70;;
47381;SDS011;33128;51.580;5.170;2022-11-04T18:55:05;35.65;;;33.55;;
47381;SDS011;33128;51.580;5.170;2022-11-04T18:57:32;37.47;;;35.47;;
47381;SDS011;33128;51.580;5.170;2022-11-04T18:59:57;34.58;;;32.67;;
47381;SDS011;33128;51.580;5.170;2022-11-04T19:02:23;34.80;;;32.58;;
47381;SDS011;33128;51.580;5.170;2022-11-04T19:04:49;35.47;;;33.47;;
47381;SDS011;33128;51.580;5.170;2022-11-04T19:07:15;35.97;;;33.90;;
47381;SDS011;33128;51.580;5.170;2022-11-04T19:09:40;36.20;;;34.08;;
47381;SDS011;33128;51.580;5.170;2022-11-04T19:12:06;33.70;;;31.63;;
47381;SDS011;33128;51.580;5.170;2022-11-04T19:14:50;42.22;;;39.63;;
47381;SDS011;33128;51.580;5.170;2022-11-04T19:17:16;39.03;;;36.75;;
47381;SDS011;33128;51.580;5.170;2022-11-04T19:19:42;38.17;;;35.92;;
47381;SDS011;33128;51.580;5.170;2022-11-04T19:22:08;39.47;;;37.17;;
47381;SDS011;33128;51.580;5.170;2022-11-04T19:24:34;40.90;;;38.50;;
47381;SDS011;33128;51.580;5.170;2022-11-04T19:26:59;37.70;;;35.50;;
47381;SDS011;33128;51.580;5.170;2022-11-04T19:29:25;40.72;;;38.58;;
47381;SDS011;33128;51.580;5.170;2022-11-04T19:31:52;42.15;;;39.85;;
47381;SDS011;33128;51.580;5.170;2022-11-04T19:34:18;41.03;;;38.72;;
47381;SDS011;33128;51.580;5.170;2022-11-04T19:36:43;39.15;;;36.75;;
47381;SDS011;33128;51.580;5.170;2022-11-04T19:39:09;39.75;;;37.55;;
47381;SDS011;33128;51.580;5.170;2022-11-04T19:41:34;39.42;;;36.90;;
47381;SDS011;33128;51.580;5.170;2022-11-04T19:44:19;40.95;;;38.42;;
47381;SDS011;33128;51.580;5.170;2022-11-04T19:46:45;37.95;;;35.80;;
47381;SDS011;33128;51.580;5.170;2022-11-04T19:49:11;40.60;;;38.20;;
47381;SDS011;33128;51.580;5.170;2022-11-04T19:51:37;39.35;;;37.05;;
47381;SDS011;33128;51.580;5.170;2022-11-04T19:54:03;38.28;;;36.08;;
47381;SDS011;33128;51.580;5.170;2022-11-04T19:56:29;38.47;;;36.38;;
47381;SDS011;33128;51.580;5.170;2022-11-04T19:58:57;40.78;;;38.17;;
47381;SDS011;33128;51.580;5.170;2022-11-04T20:01:24;37.47;;;35.17;;
47381;SDS011;33128;51.580;5.170;2022-11-04T20:03:49;40.47;;;38.17;;
47381;SDS011;33128;51.580;5.170;2022-11-04T20:06:16;41.67;;;39.38;;
47381;SDS011;33128;51.580;5.170;2022-11-04T20:08:42;41.65;;;39.25;;
47381;SDS011;33128;51.580;5.170;2022-11-04T20:11:09;40.05;;;37.75;;
47381;SDS011;33128;51.580;5.170;2022-11-04T20:13:37;39.90;;;37.78;;
47381;SDS011;33128;51.580;5.170;2022-11-04T20:16:20;41.15;;;38.95;;
47381;SDS011;33128;51.580;5.170;2022-11-04T20:18:49;38.65;;;36.42;;
47381;SDS011;33128;51.580;5.170;2022-11-04T20:21:18;40.40;;;37.97;;
47381;SDS011;33128;51.580;5.170;2022-11-04T20:23:45;43.40;;;41.05;;
47381;SDS011;33128;51.580;5.170;2022-11-04T20:26:18;43.15;;;40.38;;
47381;SDS011;33128;51.580;5.170;2022-11-04T20:28:47;42.30;;;39.60;;
47381;SDS011;33128;51.580;5.170;2022-11-04T20:31:15;42.55;;;40.15;;
47381;SDS011;33128;51.580;5.170;2022-11-04T20:33:43;43.03;;;40.65;;
47381;SDS011;33128;51.580;5.170;2022-11-04T20:36:10;41.30;;;39.10;;
47381;SDS011;33128;51.580;5.170;2022-11-04T20:38:36;43.63;;;41.33;;
47381;SDS011;33128;51.580;5.170;2022-11-04T20:41:03;42.55;;;40.25;;
47381;SDS011;33128;51.580;5.170;2022-11-04T20:43:33;44.88;;;42.08;;
47381;SDS011;33128;51.580;5.170;2022-11-04T20:46:10;41.50;;;39.10;;
47381;SDS011;33128;51.580;5.170;2022-11-04T20:48:38;44.63;;;41.97;;
47381;SDS011;33128;51.580;5.170;2022-11-04T20:51:05;44.95;;;42.55;;
47381;SDS011;33128;51.580;5.170;2022-11-04T20:53:32;43.30;;;40.85;;
47381;SDS011;33128;51.580;5.170;2022-11-04T20:56:01;43.22;;;40.63;;
47381;SDS011;33128;51.580;5.170;2022-11-04T20:58:31;43.60;;;41.30;;
47381;SDS011;33128;51.580;5.170;2022-11-04T21:01:02;42.63;;;40.30;;
47381;SDS011;33128;51.580;5.170;2022-11-04T21:03:29;43.20;;;40.60;;
47381;SDS011;33128;51.580;5.170;2022-11-04T21:05:55;44.47;;;41.60;;
47381;SDS011;33128;51.580;5.170;2022-11-04T21:08:21;43.53;;;40.92;;
47381;SDS011;33128;51.580;5.170;2022-11-04T21:10:48;44.25;;;41.80;;
47381;SDS011;33128;51.580;5.170;2022-11-04T21:13:15;47.20;;;44.70;;
47381;SDS011;33128;51.580;5.170;2022-11-04T21:15:40;46.17;;;43.67;;
47381;SDS011;33128;51.580;5.170;2022-11-04T21:18:06;45.42;;;43.00;;
47381;SDS011;33128;51.580;5.170;2022-11-04T21:20:36;47.53;;;45.03;;
47381;SDS011;33128;51.580;5.170;2022-11-04T21:23:04;47.03;;;44.38;;
47381;SDS011;33128;51.580;5.170;2022-11-04T21:25:30;46.50;;;44.05;;
47381;SDS011;33128;51.580;5.170;2022-11-04T21:28:02;46.60;;;44.17;;
47381;SDS011;33128;51.580;5.170;2022-11-04T21:30:27;47.65;;;45.15;;
47381;SDS011;33128;51.580;5.170;2022-11-04T21:32:53;48.70;;;46.22;;
47381;SDS011;33128;51.580;5.170;2022-11-04T21:35:19;48.47;;;45.85;;
47381;SDS011;33128;51.580;5.170;2022-11-04T21:37:44;48.28;;;45.58;;
47381;SDS011;33128;51.580;5.170;2022-11-04T21:40:10;46.33;;;43.90;;
47381;SDS011;33128;51.580;5.170;2022-11-04T21:42:36;48.13;;;45.72;;
47381;SDS011;33128;51.580;5.170;2022-11-04T21:45:01;48.47;;;45.85;;
47381;SDS011;33128;51.580;5.170;2022-11-04T21:47:27;46.78;;;44.28;;
47381;SDS011;33128;51.580;5.170;2022-11-04T21:49:56;48.17;;;45.60;;
47381;SDS011;33128;51.580;5.170;2022-11-04T21:52:22;48.47;;;45.83;;
47381;SDS011;33128;51.580;5.170;2022-11-04T21:54:47;46.55;;;44.25;;
47381;SDS011;33128;51.580;5.170;2022-11-04T21:57:13;47.95;;;45.45;;
47381;SDS011;33128;51.580;5.170;2022-11-04T21:59:41;48.65;;;46.10;;
47381;SDS011;33128;51.580;5.170;2022-11-04T22:02:08;50.25;;;47.70;;
47381;SDS011;33128;51.580;5.170;2022-11-04T22:04:34;51.17;;;48.53;;
47381;SDS011;33128;51.580;5.170;2022-11-04T22:07:06;51.53;;;48.92;;
47381;SDS011;33128;51.580;5.170;2022-11-04T22:09:31;49.53;;;46.70;;
47381;SDS011;33128;51.580;5.170;2022-11-04T22:12:03;50.78;;;48.17;;
47381;SDS011;33128;51.580;5.170;2022-11-04T22:14:28;51.67;;;49.08;;
47381;SDS011;33128;51.580;5.170;2022-11-04T22:16:54;51.63;;;49.03;;
47381;SDS011;33128;51.580;5.170;2022-11-04T22:19:23;52.78;;;50.00;;
47381;SDS011;33128;51.580;5.170;2022-11-04T22:21:49;53.35;;;50.65;;
47381;SDS011;33128;51.580;5.170;2022-11-04T22:24:15;52.78;;;49.97;;
47381;SDS011;33128;51.580;5.170;2022-11-04T22:26:42;52.15;;;49.35;;
47381;SDS011;33128;51.580;5.170;2022-11-04T22:29:08;52.22;;;49.50;;
47381;SDS011;33128;51.580;5.170;2022-11-04T22:31:38;53.25;;;50.55;;
47381;SDS011;33128;51.580;5.170;2022-11-04T22:34:05;51.63;;;48.92;;
47381;SDS011;33128;51.580;5.170;2022-11-04T22:36:31;53.15;;;50.17;;
47381;SDS011;33128;51.580;5.170;2022-11-04T22:38:57;52.28;;;49.45;;
47381;SDS011;33128;51.580;5.170;2022-11-04T22:41:24;51.45;;;48.85;;
47381;SDS011;33128;51.580;5.170;2022-11-04T22:43:55;51.42;;;48.75;;
47381;SDS011;33128;51.580;5.170;2022-11-04T22:46:25;52.42;;;49.72;;
47381;SDS011;33128;51.580;5.170;2022-11-04T22:48:55;52.10;;;49.40;;
47381;SDS011;33128;51.580;5.170;2022-11-04T22:51:21;52.22;;;49.53;;
47381;SDS011;33128;51.580;5.170;2022-11-04T22:53:50;52.63;;;49.88;;
47381;SDS011;33128;51.580;5.170;2022-11-04T22:56:18;53.00;;;50.30;;
47381;SDS011;33128;51.580;5.170;2022-11-04T22:58:43;51.53;;;48.83;;
47381;SDS011;33128;51.580;5.170;2022-11-04T23:01:10;47.25;;;44.75;;
47381;SDS011;33128;51.580;5.170;2022-11-04T23:03:37;51.03;;;48.42;;
47381;SDS011;33128;51.580;5.170;2022-11-04T23:06:04;48.50;;;45.92;;
47381;SDS011;33128;51.580;5.170;2022-11-04T23:08:31;46.42;;;44.08;;
47381;SDS011;33128;51.580;5.170;2022-11-04T23:11:02;51.42;;;48.63;;
47381;SDS011;33128;51.580;5.170;2022-11-04T23:13:53;38.45;;;36.65;;
47381;SDS011;33128;51.580;5.170;2022-11-04T23:16:39;26.42;;;24.88;;
47381;SDS011;33128;51.580;5.170;2022-11-04T23:19:23;26.30;;;24.63;;